sensor_id;sensor_type;location;lat;lon;timestamp;pressure;altitude;pressure_sealevel;temperature;humidity
71795;BME280;59641;45.188;5.712;2023-05-01T00:01:31;99179.94;;;18.34;58.45
71795;BME280;59641;45.188;5.712;2023-05-01T00:03:57;99181.28;;;18.36;58.42
71795;BME280;59641;45.188;5.712;2023-05-01T00:06:22;99175.84;;;18.36;58.72
71795;BME280;59641;45.188;5.712;2023-05-01T00:08:48;99172.03;;;18.37;58.51
71795;BME280;59641;45.188;5.712;2023-05-01T00:11:13;99180.19;;;18.37;58.53
71795;BME280;59641;45.188;5.712;2023-05-01T00:13:39;99168.50;;;18.37;58.29
71795;BME280;59641;45.188;5.712;2023-05-01T00:16:08;99157.66;;;18.37;58.07
71795;BME280;59641;45.188;5.712;2023-05-01T00:18:34;99161.16;;;18.37;58.20
71795;BME280;59641;45.188;5.712;2023-05-01T00:21:00;99165.00;;;18.36;58.49
71795;BME280;59641;45.188;5.712;2023-05-01T00:23:25;99154.13;;;18.36;58.45
71795;BME280;59641;45.188;5.712;2023-05-01T00:25:50;99156.84;;;18.36;58.50
71795;BME280;59641;45.188;5.712;2023-05-01T00:28:17;99150.59;;;18.36;58.12
71795;BME280;59641;45.188;5.712;2023-05-01T00:30:43;99159.56;;;18.36;58.38
71795;BME280;59641;45.188;5.712;2023-05-01T00:33:09;99149.50;;;18.37;58.43
71795;BME280;59641;45.188;5.712;2023-05-01T00:35:34;99154.13;;;18.36;58.53
71795;BME280;59641;45.188;5.712;2023-05-01T00:38:00;99157.09;;;18.35;58.52
71795;BME280;59641;45.188;5.712;2023-05-01T00:40:25;99151.13;;;18.33;58.71
71795;BME280;59641;45.188;5.712;2023-05-01T00:42:51;99150.63;;;18.30;58.55
71795;BME280;59641;45.188;5.712;2023-05-01T00:45:16;99148.16;;;18.29;58.83
71795;BME280;59641;45.188;5.712;2023-05-01T00:47:42;99146.56;;;18.28;59.21
71795;BME280;59641;45.188;5.712;2023-05-01T00:50:08;99151.16;;;18.27;58.95
71795;BME280;59641;45.188;5.712;2023-05-01T00:52:33;99135.41;;;18.24;59.44
71795;BME280;59641;45.188;5.712;2023-05-01T00:54:59;99133.78;;;18.23;59.48
71795;BME280;59641;45.188;5.712;2023-05-01T00:57:25;99131.88;;;18.24;59.33
71795;BME280;59641;45.188;5.712;2023-05-01T00:59:50;99128.88;;;18.25;59.50
71795;BME280;59641;45.188;5.712;2023-05-01T01:02:16;99118.31;;;18.24;59.39
71795;BME280;59641;45.188;5.712;2023-05-01T01:04:43;99121.84;;;18.24;59.02
71795;BME280;59641;45.188;5.712;2023-05-01T01:12:23;99110.19;;;18.19;59.91
71795;BME280;59641;45.188;5.712;2023-05-01T01:17:46;99110.19;;;18.19;59.99
71795;BME280;59641;45.188;5.712;2023-05-01T01:20:43;99102.03;;;18.19;59.85
71795;BME280;59641;45.188;5.712;2023-05-01T01:31:20;99092.25;;;18.18;60.64
71795;BME280;59641;45.188;5.712;2023-05-01T01:39:28;99089.00;;;18.16;60.39
71795;BME280;59641;45.188;5.712;2023-05-01T01:41:56;99083.56;;;18.10;60.46
71795;BME280;59641;45.188;5.712;2023-05-01T01:44:32;99087.66;;;18.08;60.26
71795;BME280;59641;45.188;5.712;2023-05-01T01:47:01;99093.66;;;18.05;60.58
71795;BME280;59641;45.188;5.712;2023-05-01T01:49:30;99092.56;;;18.01;60.65
71795;BME280;59641;45.188;5.712;2023-05-01T01:51:58;99095.03;;;17.97;60.55
71795;BME280;59641;45.188;5.712;2023-05-01T01:54:32;99087.16;;;17.96;60.86
71795;BME280;59641;45.188;5.712;2023-05-01T01:57:01;99090.13;;;17.94;61.51
71795;BME280;59641;45.188;5.712;2023-05-01T01:59:30;99088.50;;;17.93;61.35
71795;BME280;59641;45.188;5.712;2023-05-01T02:01:58;99088.78;;;17.92;61.25
71795;BME280;59641;45.188;5.712;2023-05-01T02:04:27;99081.75;;;17.91;61.16
71795;BME280;59641;45.188;5.712;2023-05-01T02:06:54;99084.72;;;17.89;61.58
71795;BME280;59641;45.188;5.712;2023-05-01T02:09:22;99079.84;;;17.86;61.48
71795;BME280;59641;45.188;5.712;2023-05-01T02:11:50;99089.59;;;17.87;61.75
71795;BME280;59641;45.188;5.712;2023-05-01T02:14:17;99088.00;;;17.86;62.05
71795;BME280;59641;45.188;5.712;2023-05-01T02:16:44;99089.09;;;17.85;61.74
71795;BME280;59641;45.188;5.712;2023-05-01T02:19:10;99091.25;;;17.83;61.95
71795;BME280;59641;45.188;5.712;2023-05-01T02:21:37;99090.72;;;17.81;61.85
71795;BME280;59641;45.188;5.712;2023-05-01T02:24:04;99089.06;;;17.80;62.45
71795;BME280;59641;45.188;5.712;2023-05-01T02:26:37;99090.41;;;17.77;62.00
71795;BME280;59641;45.188;5.712;2023-05-01T02:29:05;99085.28;;;17.76;62.28
71795;BME280;59641;45.188;5.712;2023-05-01T02:31:31;99092.06;;;17.73;62.85
71795;BME280;59641;45.188;5.712;2023-05-01T02:33:57;99089.34;;;17.73;63.01
71795;BME280;59641;45.188;5.712;2023-05-01T02:36:22;99087.44;;;17.74;62.90
71795;BME280;59641;45.188;5.712;2023-05-01T02:38:47;99077.38;;;17.74;63.34
71795;BME280;59641;45.188;5.712;2023-05-01T02:41:15;99087.44;;;17.74;63.27
71795;BME280;59641;45.188;5.712;2023-05-01T02:43:42;99081.19;;;17.73;63.20
71795;BME280;59641;45.188;5.712;2023-05-01T02:46:10;99074.13;;;17.72;63.74
71795;BME280;59641;45.188;5.712;2023-05-01T02:48:37;99078.75;;;17.72;63.30
71795;BME280;59641;45.188;5.712;2023-05-01T02:51:06;99073.88;;;17.68;63.75
71795;BME280;59641;45.188;5.712;2023-05-01T02:53:32;99077.66;;;17.67;63.91
71795;BME280;59641;45.188;5.712;2023-05-01T02:55:58;99088.50;;;17.67;63.81
71795;BME280;59641;45.188;5.712;2023-05-01T02:58:23;99084.19;;;17.66;63.62
71795;BME280;59641;45.188;5.712;2023-05-01T03:00:49;99084.19;;;17.66;63.96
71795;BME280;59641;45.188;5.712;2023-05-01T03:03:14;99083.38;;;17.66;63.92
71795;BME280;59641;45.188;5.712;2023-05-01T03:05:40;99081.47;;;17.66;63.75
71795;BME280;59641;45.188;5.712;2023-05-01T03:08:06;99078.22;;;17.64;63.43
71795;BME280;59641;45.188;5.712;2023-05-01T03:10:32;99076.59;;;17.63;63.84
71795;BME280;59641;45.188;5.712;2023-05-01T03:12:57;99071.19;;;17.63;63.94
71795;BME280;59641;45.188;5.712;2023-05-01T03:15:23;99073.88;;;17.63;63.51
71795;BME280;59641;45.188;5.712;2023-05-01T03:17:48;99070.63;;;17.61;63.43
71795;BME280;59641;45.188;5.712;2023-05-01T03:20:13;99066.56;;;17.59;63.41
71795;BME280;59641;45.188;5.712;2023-05-01T03:22:40;99064.41;;;17.56;63.91
71795;BME280;59641;45.188;5.712;2023-05-01T03:25:06;99066.28;;;17.55;63.81
71795;BME280;59641;45.188;5.712;2023-05-01T03:27:31;99067.13;;;17.56;64.01
71795;BME280;59641;45.188;5.712;2023-05-01T03:29:57;99067.94;;;17.56;64.00
71795;BME280;59641;45.188;5.712;2023-05-01T03:32:22;99063.31;;;17.57;64.40
71795;BME280;59641;45.188;5.712;2023-05-01T03:34:47;99069.53;;;17.57;64.45
71795;BME280;59641;45.188;5.712;2023-05-01T03:37:13;99066.03;;;17.57;64.14
71795;BME280;59641;45.188;5.712;2023-05-01T03:39:39;99073.91;;;17.58;64.45
71795;BME280;59641;45.188;5.712;2023-05-01T03:42:04;99068.47;;;17.58;64.28
71795;BME280;59641;45.188;5.712;2023-05-01T03:44:30;99073.34;;;17.61;64.58
71795;BME280;59641;45.188;5.712;2023-05-01T03:46:56;99066.81;;;17.62;64.71
71795;BME280;59641;45.188;5.712;2023-05-01T03:49:22;99070.34;;;17.63;64.65
71795;BME280;59641;45.188;5.712;2023-05-01T03:51:47;99071.97;;;17.64;64.73
71795;BME280;59641;45.188;5.712;2023-05-01T03:54:13;99075.50;;;17.64;64.84
71795;BME280;59641;45.188;5.712;2023-05-01T03:56:38;99073.59;;;17.65;64.82
71795;BME280;59641;45.188;5.712;2023-05-01T03:59:04;99069.81;;;17.66;64.55
71795;BME280;59641;45.188;5.712;2023-05-01T04:01:29;99067.09;;;17.66;64.57
71795;BME280;59641;45.188;5.712;2023-05-01T04:03:57;99069.81;;;17.66;64.71
71795;BME280;59641;45.188;5.712;2023-05-01T04:06:23;99071.72;;;17.65;64.60
71795;BME280;59641;45.188;5.712;2023-05-01T04:08:48;99066.00;;;17.67;64.84
71795;BME280;59641;45.188;5.712;2023-05-01T04:11:13;99067.66;;;17.68;65.15
71795;BME280;59641;45.188;5.712;2023-05-01T04:13:39;99057.59;;;17.68;64.96
71795;BME280;59641;45.188;5.712;2023-05-01T04:16:04;99059.22;;;17.70;64.95
71795;BME280;59641;45.188;5.712;2023-05-01T04:18:30;99058.66;;;17.67;65.00
71795;BME280;59641;45.188;5.712;2023-05-01T04:20:55;99060.31;;;17.68;65.23
71795;BME280;59641;45.188;5.712;2023-05-01T04:23:21;99066.53;;;17.69;64.85
71795;BME280;59641;45.188;5.712;2023-05-01T04:25:46;99063.03;;;17.68;65.15
71795;BME280;59641;45.188;5.712;2023-05-01T04:28:12;99059.50;;;17.68;64.75
71795;BME280;59641;45.188;5.712;2023-05-01T04:30:37;99072.22;;;17.67;64.50
71795;BME280;59641;45.188;5.712;2023-05-01T04:33:03;99074.69;;;17.64;64.09
71795;BME280;59641;45.188;5.712;2023-05-01T04:35:38;99077.66;;;17.62;64.06
71795;BME280;59641;45.188;5.712;2023-05-01T04:38:07;99076.06;;;17.61;64.15
71795;BME280;59641;45.188;5.712;2023-05-01T04:40:34;99076.06;;;17.61;64.47
71795;BME280;59641;45.188;5.712;2023-05-01T04:42:59;99081.47;;;17.61;64.20
71795;BME280;59641;45.188;5.712;2023-05-01T04:45:25;99079.84;;;17.60;64.31
71795;BME280;59641;45.188;5.712;2023-05-01T04:47:50;99076.88;;;17.57;64.63
71795;BME280;59641;45.188;5.712;2023-05-01T04:50:16;99076.88;;;17.57;63.88
71795;BME280;59641;45.188;5.712;2023-05-01T04:52:41;99077.13;;;17.55;63.94
71795;BME280;59641;45.188;5.712;2023-05-01T04:55:07;99076.34;;;17.55;63.83
71795;BME280;59641;45.188;5.712;2023-05-01T04:57:36;99073.06;;;17.53;63.59
71795;BME280;59641;45.188;5.712;2023-05-01T05:00:01;99081.75;;;17.50;63.27
71795;BME280;59641;45.188;5.712;2023-05-01T05:02:27;99071.47;;;17.46;63.71
71795;BME280;59641;45.188;5.712;2023-05-01T05:04:52;99085.84;;;17.47;62.99
71795;BME280;59641;45.188;5.712;2023-05-01T05:07:18;99079.88;;;17.45;63.11
71795;BME280;59641;45.188;5.712;2023-05-01T05:09:45;99088.81;;;17.40;62.97
71795;BME280;59641;45.188;5.712;2023-05-01T05:12:10;99093.44;;;17.40;62.73
71795;BME280;59641;45.188;5.712;2023-05-01T05:14:36;99094.50;;;17.39;62.73
71795;BME280;59641;45.188;5.712;2023-05-01T05:17:01;99095.59;;;17.38;62.58
71795;BME280;59641;45.188;5.712;2023-05-01T05:19:26;99096.69;;;17.37;62.72
71795;BME280;59641;45.188;5.712;2023-05-01T05:21:52;99095.34;;;17.34;62.55
71795;BME280;59641;45.188;5.712;2023-05-01T05:24:17;99085.56;;;17.33;62.72
71795;BME280;59641;45.188;5.712;2023-05-01T05:26:42;99098.06;;;17.34;62.72
71795;BME280;59641;45.188;5.712;2023-05-01T05:29:08;99096.41;;;17.33;62.48
71795;BME280;59641;45.188;5.712;2023-05-01T05:31:33;99095.06;;;17.31;62.66
71795;BME280;59641;45.188;5.712;2023-05-01T05:33:59;99096.41;;;17.28;62.46
71795;BME280;59641;45.188;5.712;2023-05-01T05:36:24;99094.25;;;17.25;62.41
71795;BME280;59641;45.188;5.712;2023-05-01T05:38:51;99093.16;;;17.26;62.31
71795;BME280;59641;45.188;5.712;2023-05-01T05:41:17;99098.03;;;17.24;62.11
71795;BME280;59641;45.188;5.712;2023-05-01T05:43:42;99105.34;;;17.23;62.07
71795;BME280;59641;45.188;5.712;2023-05-01T05:46:07;99106.16;;;17.24;62.33
71795;BME280;59641;45.188;5.712;2023-05-01T05:48:33;99107.00;;;17.24;62.21
71795;BME280;59641;45.188;5.712;2023-05-01T05:50:58;99110.78;;;17.23;62.13
71795;BME280;59641;45.188;5.712;2023-05-01T05:53:23;99108.59;;;17.25;61.95
71795;BME280;59641;45.188;5.712;2023-05-01T05:55:49;99112.41;;;17.30;62.30
71795;BME280;59641;45.188;5.712;2023-05-01T05:58:14;99115.38;;;17.28;61.58
71795;BME280;59641;45.188;5.712;2023-05-01T06:00:48;99114.03;;;17.25;61.71
71795;BME280;59641;45.188;5.712;2023-05-01T06:03:14;99111.56;;;17.24;61.70
71795;BME280;59641;45.188;5.712;2023-05-01T06:05:41;99117.84;;;17.24;61.38
71795;BME280;59641;45.188;5.712;2023-05-01T06:08:07;99114.84;;;17.21;61.41
71795;BME280;59641;45.188;5.712;2023-05-01T06:10:34;99115.09;;;17.19;61.51
71795;BME280;59641;45.188;5.712;2023-05-01T06:13:00;99119.16;;;17.17;61.57
71795;BME280;59641;45.188;5.712;2023-05-01T06:15:26;99124.88;;;17.15;61.70
71795;BME280;59641;45.188;5.712;2023-05-01T06:17:51;99125.13;;;17.14;62.16
71795;BME280;59641;45.188;5.712;2023-05-01T06:20:16;99116.19;;;17.13;62.17
71795;BME280;59641;45.188;5.712;2023-05-01T06:22:42;99112.13;;;17.11;61.98
71795;BME280;59641;45.188;5.712;2023-05-01T06:25:08;99112.91;;;17.06;62.23
71795;BME280;59641;45.188;5.712;2023-05-01T06:27:33;99109.91;;;17.02;62.29
71795;BME280;59641;45.188;5.712;2023-05-01T06:29:58;99111.56;;;16.98;62.50
71795;BME280;59641;45.188;5.712;2023-05-01T06:32:24;99118.59;;;16.94;62.34
71795;BME280;59641;45.188;5.712;2023-05-01T06:34:49;99119.13;;;16.91;62.91
71795;BME280;59641;45.188;5.712;2023-05-01T06:37:15;99128.06;;;16.92;62.57
71795;BME280;59641;45.188;5.712;2023-05-01T06:39:40;99123.47;;;16.92;62.42
71795;BME280;59641;45.188;5.712;2023-05-01T06:42:05;99135.09;;;16.93;63.14
71795;BME280;59641;45.188;5.712;2023-05-01T06:44:32;99134.59;;;16.96;62.60
71795;BME280;59641;45.188;5.712;2023-05-01T06:46:57;99133.50;;;16.92;62.11
71795;BME280;59641;45.188;5.712;2023-05-01T06:49:22;99144.03;;;16.88;62.28
71795;BME280;59641;45.188;5.712;2023-05-01T06:51:48;99140.81;;;16.86;62.80
71795;BME280;59641;45.188;5.712;2023-05-01T06:54:13;99136.19;;;16.87;62.75
71795;BME280;59641;45.188;5.712;2023-05-01T06:56:39;99136.19;;;16.87;62.73
71795;BME280;59641;45.188;5.712;2023-05-01T06:59:04;99136.19;;;16.87;62.50
71795;BME280;59641;45.188;5.712;2023-05-01T07:01:30;99139.16;;;16.90;62.94
71795;BME280;59641;45.188;5.712;2023-05-01T07:03:55;99139.97;;;16.91;62.59
71795;BME280;59641;45.188;5.712;2023-05-01T07:06:20;99137.56;;;16.89;62.41
71795;BME280;59641;45.188;5.712;2023-05-01T07:08:46;99137.81;;;16.88;62.51
71795;BME280;59641;45.188;5.712;2023-05-01T07:11:11;99145.13;;;16.87;62.45
71795;BME280;59641;45.188;5.712;2023-05-01T07:13:37;99154.34;;;16.86;62.73
71795;BME280;59641;45.188;5.712;2023-05-01T07:16:02;99139.16;;;16.85;62.65
71795;BME280;59641;45.188;5.712;2023-05-01T07:18:27;99142.97;;;16.84;62.83
71795;BME280;59641;45.188;5.712;2023-05-01T07:20:53;99142.97;;;16.84;62.64
71795;BME280;59641;45.188;5.712;2023-05-01T07:23:19;99134.53;;;16.86;62.90
71795;BME280;59641;45.188;5.712;2023-05-01T07:25:44;99134.53;;;16.86;62.81
71795;BME280;59641;45.188;5.712;2023-05-01T07:28:10;99138.09;;;16.86;62.86
71795;BME280;59641;45.188;5.712;2023-05-01T07:30:35;99135.66;;;16.90;62.94
71795;BME280;59641;45.188;5.712;2023-05-01T07:33:01;99138.91;;;16.92;62.77
71795;BME280;59641;45.188;5.712;2023-05-01T07:35:27;99139.72;;;16.92;62.34
71795;BME280;59641;45.188;5.712;2023-05-01T07:37:52;99134.56;;;16.91;62.50
71795;BME280;59641;45.188;5.712;2023-05-01T07:40:19;99133.22;;;16.93;62.45
71795;BME280;59641;45.188;5.712;2023-05-01T07:42:44;99137.56;;;16.94;62.33
71795;BME280;59641;45.188;5.712;2023-05-01T07:45:10;99130.53;;;16.93;62.12
71795;BME280;59641;45.188;5.712;2023-05-01T07:47:35;99132.13;;;16.94;62.15
71795;BME280;59641;45.188;5.712;2023-05-01T07:50:02;99140.53;;;16.98;62.55
71795;BME280;59641;45.188;5.712;2023-05-01T07:52:28;99143.25;;;16.98;62.08
71795;BME280;59641;45.188;5.712;2023-05-01T07:54:54;99136.75;;;16.99;62.07
71795;BME280;59641;45.188;5.712;2023-05-01T07:57:19;99135.13;;;16.98;62.17
71795;BME280;59641;45.188;5.712;2023-05-01T07:59:45;99142.44;;;16.97;62.19
71795;BME280;59641;45.188;5.712;2023-05-01T08:02:10;99144.09;;;16.98;61.87
71795;BME280;59641;45.188;5.712;2023-05-01T08:04:37;99138.66;;;16.98;62.06
71795;BME280;59641;45.188;5.712;2023-05-01T08:07:03;99142.19;;;16.99;61.79
71795;BME280;59641;45.188;5.712;2023-05-01T08:09:28;99150.56;;;16.97;61.72
71795;BME280;59641;45.188;5.712;2023-05-01T08:11:53;99151.38;;;16.98;61.87
71795;BME280;59641;45.188;5.712;2023-05-01T08:14:19;99148.94;;;16.96;62.36
71795;BME280;59641;45.188;5.712;2023-05-01T08:16:44;99151.09;;;16.94;61.96
71795;BME280;59641;45.188;5.712;2023-05-01T08:19:09;99150.31;;;16.94;62.43
71795;BME280;59641;45.188;5.712;2023-05-01T08:21:35;99159.00;;;16.96;62.36
71795;BME280;59641;45.188;5.712;2023-05-01T08:24:00;99157.09;;;16.96;62.55
71795;BME280;59641;45.188;5.712;2023-05-01T08:26:26;99157.88;;;16.97;61.98
71795;BME280;59641;45.188;5.712;2023-05-01T08:28:51;99164.94;;;16.98;62.27
71795;BME280;59641;45.188;5.712;2023-05-01T08:31:16;99153.28;;;16.97;61.80
71795;BME280;59641;45.188;5.712;2023-05-01T08:33:43;99160.34;;;16.98;61.97
71795;BME280;59641;45.188;5.712;2023-05-01T08:36:09;99154.63;;;17.00;62.08
71795;BME280;59641;45.188;5.712;2023-05-01T08:38:38;99156.00;;;17.02;62.29
71795;BME280;59641;45.188;5.712;2023-05-01T08:41:03;99159.53;;;17.03;61.90
71795;BME280;59641;45.188;5.712;2023-05-01T08:43:31;99158.44;;;17.04;61.74
71795;BME280;59641;45.188;5.712;2023-05-01T08:46:00;99158.19;;;17.06;61.69
71795;BME280;59641;45.188;5.712;2023-05-01T08:48:27;99167.13;;;17.06;61.70
71795;BME280;59641;45.188;5.712;2023-05-01T08:50:55;99171.22;;;17.09;61.47
71795;BME280;59641;45.188;5.712;2023-05-01T08:53:23;99168.50;;;17.09;61.98
71795;BME280;59641;45.188;5.712;2023-05-01T08:55:49;99179.91;;;17.11;61.66
71795;BME280;59641;45.188;5.712;2023-05-01T08:58:17;99176.63;;;17.14;61.67
71795;BME280;59641;45.188;5.712;2023-05-01T09:00:44;99184.53;;;17.15;61.39
71795;BME280;59641;45.188;5.712;2023-05-01T09:03:11;99174.47;;;17.16;61.24
71795;BME280;59641;45.188;5.712;2023-05-01T09:05:38;99175.03;;;17.18;61.26
71795;BME280;59641;45.188;5.712;2023-05-01T09:08:04;99181.00;;;17.20;61.29
71795;BME280;59641;45.188;5.712;2023-05-01T09:10:29;99189.66;;;17.22;60.79
71795;BME280;59641;45.188;5.712;2023-05-01T09:13:02;99185.06;;;17.22;61.26
71795;BME280;59641;45.188;5.712;2023-05-01T09:15:31;99185.06;;;17.22;60.72
71795;BME280;59641;45.188;5.712;2023-05-01T09:17:58;99194.03;;;17.23;61.13
71795;BME280;59641;45.188;5.712;2023-05-01T09:20:24;99198.63;;;17.28;61.34
71795;BME280;59641;45.188;5.712;2023-05-01T09:22:50;99200.53;;;17.27;60.58
71795;BME280;59641;45.188;5.712;2023-05-01T09:25:15;99199.44;;;17.28;60.79
71795;BME280;59641;45.188;5.712;2023-05-01T09:27:43;99207.59;;;17.33;60.68
71795;BME280;59641;45.188;5.712;2023-05-01T09:30:08;99209.25;;;17.34;60.84
71795;BME280;59641;45.188;5.712;2023-05-01T09:32:34;99211.13;;;17.39;60.92
71795;BME280;59641;45.188;5.712;2023-05-01T09:35:11;99214.13;;;17.42;60.84
71795;BME280;59641;45.188;5.712;2023-05-01T09:37:36;99213.88;;;17.44;61.16
71795;BME280;59641;45.188;5.712;2023-05-01T09:42:32;99212.50;;;17.46;60.44
71795;BME280;59641;45.188;5.712;2023-05-01T09:44:58;99210.59;;;17.47;60.10
71795;BME280;59641;45.188;5.712;2023-05-01T09:47:25;99215.78;;;17.49;60.37
71795;BME280;59641;45.188;5.712;2023-05-01T09:49:55;99211.16;;;17.49;60.66
71795;BME280;59641;45.188;5.712;2023-05-01T09:52:23;99216.03;;;17.52;60.37
71795;BME280;59641;45.188;5.712;2023-05-01T09:54:49;99215.50;;;17.55;60.39
71795;BME280;59641;45.188;5.712;2023-05-01T09:57:14;99213.06;;;17.59;60.31
71795;BME280;59641;45.188;5.712;2023-05-01T09:59:40;99211.16;;;17.59;60.13
71795;BME280;59641;45.188;5.712;2023-05-01T10:02:05;99215.22;;;17.62;59.75
71795;BME280;59641;45.188;5.712;2023-05-01T10:04:32;99219.31;;;17.64;59.67
71795;BME280;59641;45.188;5.712;2023-05-01T10:07:18;99225.03;;;17.68;59.76
71795;BME280;59641;45.188;5.712;2023-05-01T10:09:43;99219.06;;;17.66;59.55
71795;BME280;59641;45.188;5.712;2023-05-01T10:12:09;99225.28;;;17.66;59.62
71795;BME280;59641;45.188;5.712;2023-05-01T10:14:49;99232.31;;;17.67;60.00
71795;BME280;59641;45.188;5.712;2023-05-01T10:17:17;99239.66;;;17.67;59.97
71795;BME280;59641;45.188;5.712;2023-05-01T10:19:44;99244.53;;;17.65;60.13
71795;BME280;59641;45.188;5.712;2023-05-01T10:22:09;99250.50;;;17.62;60.37
71795;BME280;59641;45.188;5.712;2023-05-01T10:24:35;99252.97;;;17.58;60.03
71795;BME280;59641;45.188;5.712;2023-05-01T10:27:01;99253.78;;;17.59;60.61
71795;BME280;59641;45.188;5.712;2023-05-01T10:29:30;99242.91;;;17.59;60.88
71795;BME280;59641;45.188;5.712;2023-05-01T10:31:56;99244.53;;;17.60;60.92
71795;BME280;59641;45.188;5.712;2023-05-01T10:34:24;99246.69;;;17.58;61.03
71795;BME280;59641;45.188;5.712;2023-05-01T10:36:57;99256.75;;;17.57;60.92
71795;BME280;59641;45.188;5.712;2023-05-01T10:39:37;99246.44;;;17.54;61.60
71795;BME280;59641;45.188;5.712;2023-05-01T10:42:09;99250.22;;;17.53;62.26
71795;BME280;59641;45.188;5.712;2023-05-01T10:44:38;99251.31;;;17.52;62.31
71795;BME280;59641;45.188;5.712;2023-05-01T10:50:10;99242.34;;;17.52;62.42
71795;BME280;59641;45.188;5.712;2023-05-01T10:55:42;99235.56;;;17.49;62.42
71795;BME280;59641;45.188;5.712;2023-05-01T10:58:12;99233.94;;;17.48;62.15
71795;BME280;59641;45.188;5.712;2023-05-01T11:00:38;99233.13;;;17.48;62.83
71795;BME280;59641;45.188;5.712;2023-05-01T11:08:28;99234.53;;;17.65;64.02
71795;BME280;59641;45.188;5.712;2023-05-01T11:10:55;99227.19;;;17.71;64.20
71795;BME280;59641;45.188;5.712;2023-05-01T11:18:59;99220.97;;;17.91;63.23
71795;BME280;59641;45.188;5.712;2023-05-01T11:21:28;99208.75;;;17.99;63.81
71795;BME280;59641;45.188;5.712;2023-05-01T11:23:54;99209.28;;;18.11;63.93
71795;BME280;59641;45.188;5.712;2023-05-01T11:26:22;99202.75;;;18.22;63.74
71795;BME280;59641;45.188;5.712;2023-05-01T11:28:47;99196.25;;;18.28;62.91
71795;BME280;59641;45.188;5.712;2023-05-01T11:31:20;99194.88;;;18.36;62.89
71795;BME280;59641;45.188;5.712;2023-05-01T11:33:45;99189.41;;;18.46;63.18
71795;BME280;59641;45.188;5.712;2023-05-01T11:36:11;99183.09;;;18.61;63.65
71795;BME280;59641;45.188;5.712;2023-05-01T11:38:51;99180.38;;;18.77;62.95
71795;BME280;59641;45.188;5.712;2023-05-01T11:41:20;99183.31;;;18.85;62.50
71795;BME280;59641;45.188;5.712;2023-05-01T11:43:57;99174.84;;;18.92;62.18
71795;BME280;59641;45.188;5.712;2023-05-01T11:48:49;99176.50;;;18.93;61.62
71795;BME280;59641;45.188;5.712;2023-05-01T11:51:14;99172.94;;;18.92;61.27
71795;BME280;59641;45.188;5.712;2023-05-01T11:53:40;99169.41;;;18.92;61.33
71795;BME280;59641;45.188;5.712;2023-05-01T11:56:18;99170.53;;;18.91;60.93
71795;BME280;59641;45.188;5.712;2023-05-01T11:58:43;99164.56;;;18.89;61.28
71795;BME280;59641;45.188;5.712;2023-05-01T12:01:08;99155.56;;;18.93;61.45
71795;BME280;59641;45.188;5.712;2023-05-01T12:03:40;99155.50;;;19.04;62.17
71795;BME280;59641;45.188;5.712;2023-05-01T12:06:08;99157.06;;;19.15;61.64
71795;BME280;59641;45.188;5.712;2023-05-01T12:08:35;99154.00;;;19.22;61.30
71795;BME280;59641;45.188;5.712;2023-05-01T12:11:00;99161.88;;;19.28;61.26
71795;BME280;59641;45.188;5.712;2023-05-01T12:13:26;99160.50;;;19.31;60.27
71795;BME280;59641;45.188;5.712;2023-05-01T12:15:53;99163.50;;;19.29;59.81
71795;BME280;59641;45.188;5.712;2023-05-01T12:18:19;99176.00;;;19.30;59.78
71795;BME280;59641;45.188;5.712;2023-05-01T12:20:49;99169.75;;;19.30;59.68
71795;BME280;59641;45.188;5.712;2023-05-01T12:23:19;99169.78;;;19.25;59.48
71795;BME280;59641;45.188;5.712;2023-05-01T12:25:54;99169.28;;;19.18;59.63
71795;BME280;59641;45.188;5.712;2023-05-01T12:28:19;99166.06;;;19.10;59.42
71795;BME280;59641;45.188;5.712;2023-05-01T12:30:46;99174.00;;;19.02;59.23
71795;BME280;59641;45.188;5.712;2023-05-01T12:33:15;99176.75;;;18.97;59.35
71795;BME280;59641;45.188;5.712;2023-05-01T12:35:41;99175.97;;;18.91;59.61
71795;BME280;59641;45.188;5.712;2023-05-01T12:38:10;99177.06;;;18.85;59.62
71795;BME280;59641;45.188;5.712;2023-05-01T12:40:38;99170.56;;;18.81;59.85
71795;BME280;59641;45.188;5.712;2023-05-01T12:43:03;99175.47;;;18.79;59.53
71795;BME280;59641;45.188;5.712;2023-05-01T12:45:29;99174.13;;;18.76;59.66
71795;BME280;59641;45.188;5.712;2023-05-01T12:47:54;99178.69;;;18.76;59.51
71795;BME280;59641;45.188;5.712;2023-05-01T12:50:20;99173.84;;;18.72;59.09
71795;BME280;59641;45.188;5.712;2023-05-01T12:52:46;99168.41;;;18.67;59.39
71795;BME280;59641;45.188;5.712;2023-05-01T12:55:12;99165.69;;;18.67;60.00
71795;BME280;59641;45.188;5.712;2023-05-01T12:57:57;99164.06;;;18.71;59.71
71795;BME280;59641;45.188;5.712;2023-05-01T13:00:23;99165.69;;;18.72;60.37
71795;BME280;59641;45.188;5.712;2023-05-01T13:02:48;99163.75;;;18.73;59.61
71795;BME280;59641;45.188;5.712;2023-05-01T13:05:14;99156.72;;;18.72;59.81
71795;BME280;59641;45.188;5.712;2023-05-01T13:07:46;99159.16;;;18.68;59.70
71795;BME280;59641;45.188;5.712;2023-05-01T13:10:12;99151.00;;;18.68;60.12
71795;BME280;59641;45.188;5.712;2023-05-01T13:12:43;99148.81;;;18.70;60.51
71795;BME280;59641;45.188;5.712;2023-05-01T13:15:18;99148.25;;;18.73;59.00
71795;BME280;59641;45.188;5.712;2023-05-01T13:17:43;99143.13;;;18.72;59.12
71795;BME280;59641;45.188;5.712;2023-05-01T13:20:09;99150.97;;;18.73;58.97
71795;BME280;59641;45.188;5.712;2023-05-01T13:22:37;99160.25;;;18.78;58.90
71795;BME280;59641;45.188;5.712;2023-05-01T13:25:04;99173.56;;;18.79;59.25
71795;BME280;59641;45.188;5.712;2023-05-01T13:27:30;99178.44;;;18.82;58.96
71795;BME280;59641;45.188;5.712;2023-05-01T13:29:57;99176.81;;;18.81;59.53
71795;BME280;59641;45.188;5.712;2023-05-01T13:32:24;99183.34;;;18.80;59.81
71795;BME280;59641;45.188;5.712;2023-05-01T13:34:50;99202.66;;;18.79;60.15
71795;BME280;59641;45.188;5.712;2023-05-01T13:37:15;99196.69;;;18.77;60.63
71795;BME280;59641;45.188;5.712;2023-05-01T13:39:42;99195.00;;;18.76;60.73
71795;BME280;59641;45.188;5.712;2023-05-01T13:42:10;99195.03;;;18.70;60.79